Terminal Aerodrome Forecast
Issued by NWS Tiyan, Guam

Home | Current Version | Previous Version | Text Only | Print | Product List | Glossary On
Versions: 1 2 3 4 5 6 7 8 9 10 11 12 13 14 15 16 17 18 19 20 21 22 23 24 25 26 27 28 29 30
000
FTPQ31 PGUM 272300
TAFPQ
TAF
PGUM 272325Z 2800/2906 09010KT P6SM VCSH FEW018 SCT060 BKN100
      TEMPO 2800/2802 -SHRA SCT014 BKN030
     FM280200 11011G20KT P6SM VCSH FEW020 SCT060 SCT100=

USA.gov is the U.S. government's official web portal to all federal, state and local government web resources and services.